sensor_id;sensor_type;location;lat;lon;timestamp;P1;durP1;ratioP1;P2;durP2;ratioP2
73733;SDS011;62039;50.000;9.064;2022-07-21T00:00:15;7.90;;;6.53;;
73733;SDS011;62039;50.000;9.064;2022-07-21T00:02:42;7.87;;;7.17;;
73733;SDS011;62039;50.000;9.064;2022-07-21T00:05:08;8.10;;;7.40;;
73733;SDS011;62039;50.000;9.064;2022-07-21T00:07:36;8.10;;;7.40;;
73733;SDS011;62039;50.000;9.064;2022-07-21T00:10:03;7.70;;;7.00;;
73733;SDS011;62039;50.000;9.064;2022-07-21T00:12:30;7.50;;;6.80;;
73733;SDS011;62039;50.000;9.064;2022-07-21T00:14:57;8.20;;;7.40;;
73733;SDS011;62039;50.000;9.064;2022-07-21T00:17:24;7.63;;;6.77;;
73733;SDS011;62039;50.000;9.064;2022-07-21T00:19:51;7.27;;;6.57;;
73733;SDS011;62039;50.000;9.064;2022-07-21T00:22:17;7.50;;;6.80;;
73733;SDS011;62039;50.000;9.064;2022-07-21T00:24:45;6.90;;;6.30;;
73733;SDS011;62039;50.000;9.064;2022-07-21T00:27:12;7.57;;;6.87;;
73733;SDS011;62039;50.000;9.064;2022-07-21T00:29:39;6.57;;;6.07;;
73733;SDS011;62039;50.000;9.064;2022-07-21T00:32:05;6.67;;;6.07;;
73733;SDS011;62039;50.000;9.064;2022-07-21T00:34:32;7.23;;;6.50;;
73733;SDS011;62039;50.000;9.064;2022-07-21T00:36:59;6.43;;;5.83;;
73733;SDS011;62039;50.000;9.064;2022-07-21T00:39:26;6.50;;;5.90;;
73733;SDS011;62039;50.000;9.064;2022-07-21T00:41:54;6.53;;;5.80;;
73733;SDS011;62039;50.000;9.064;2022-07-21T00:44:20;7.30;;;6.67;;
73733;SDS011;62039;50.000;9.064;2022-07-21T00:46:48;6.90;;;6.40;;
73733;SDS011;62039;50.000;9.064;2022-07-21T00:49:15;6.80;;;6.30;;
73733;SDS011;62039;50.000;9.064;2022-07-21T00:51:41;6.60;;;6.00;;
73733;SDS011;62039;50.000;9.064;2022-07-21T00:54:08;6.47;;;5.83;;
73733;SDS011;62039;50.000;9.064;2022-07-21T00:56:35;6.77;;;6.07;;
73733;SDS011;62039;50.000;9.064;2022-07-21T00:59:03;6.13;;;5.63;;
73733;SDS011;62039;50.000;9.064;2022-07-21T01:01:30;6.40;;;5.87;;
73733;SDS011;62039;50.000;9.064;2022-07-21T01:03:57;6.37;;;5.87;;
73733;SDS011;62039;50.000;9.064;2022-07-21T01:06:23;6.73;;;6.13;;
73733;SDS011;62039;50.000;9.064;2022-07-21T01:08:50;5.97;;;5.47;;
73733;SDS011;62039;50.000;9.064;2022-07-21T01:11:17;6.57;;;5.97;;
73733;SDS011;62039;50.000;9.064;2022-07-21T01:13:45;5.77;;;5.33;;
73733;SDS011;62039;50.000;9.064;2022-07-21T01:16:14;6.20;;;5.70;;
73733;SDS011;62039;50.000;9.064;2022-07-21T01:18:40;6.53;;;6.03;;
73733;SDS011;62039;50.000;9.064;2022-07-21T01:21:21;6.63;;;6.13;;
73733;SDS011;62039;50.000;9.064;2022-07-21T01:23:54;7.13;;;6.53;;
73733;SDS011;62039;50.000;9.064;2022-07-21T01:26:21;7.53;;;6.93;;
73733;SDS011;62039;50.000;9.064;2022-07-21T01:28:48;7.07;;;6.40;;
73733;SDS011;62039;50.000;9.064;2022-07-21T01:31:15;7.60;;;6.90;;
73733;SDS011;62039;50.000;9.064;2022-07-21T01:33:42;7.23;;;6.60;;
73733;SDS011;62039;50.000;9.064;2022-07-21T01:36:09;8.10;;;6.60;;
73733;SDS011;62039;50.000;9.064;2022-07-21T01:38:37;7.00;;;6.50;;
73733;SDS011;62039;50.000;9.064;2022-07-21T01:41:03;6.80;;;6.20;;
73733;SDS011;62039;50.000;9.064;2022-07-21T01:43:30;6.60;;;5.87;;
73733;SDS011;62039;50.000;9.064;2022-07-21T01:45:57;7.40;;;6.70;;
73733;SDS011;62039;50.000;9.064;2022-07-21T01:48:23;6.53;;;5.93;;
73733;SDS011;62039;50.000;9.064;2022-07-21T01:50:50;6.40;;;5.90;;
73733;SDS011;62039;50.000;9.064;2022-07-21T01:53:17;6.13;;;5.63;;
73733;SDS011;62039;50.000;9.064;2022-07-21T01:55:44;6.27;;;5.67;;
73733;SDS011;62039;50.000;9.064;2022-07-21T01:58:11;6.17;;;5.57;;
73733;SDS011;62039;50.000;9.064;2022-07-21T02:00:38;8.63;;;5.40;;
73733;SDS011;62039;50.000;9.064;2022-07-21T02:03:04;5.87;;;5.37;;
73733;SDS011;62039;50.000;9.064;2022-07-21T02:05:31;5.57;;;5.07;;
73733;SDS011;62039;50.000;9.064;2022-07-21T02:07:57;5.30;;;4.90;;
73733;SDS011;62039;50.000;9.064;2022-07-21T02:10:24;5.90;;;5.40;;
73733;SDS011;62039;50.000;9.064;2022-07-21T02:12:52;5.07;;;4.67;;
73733;SDS011;62039;50.000;9.064;2022-07-21T02:15:19;5.37;;;4.87;;
73733;SDS011;62039;50.000;9.064;2022-07-21T02:17:45;4.80;;;4.40;;
73733;SDS011;62039;50.000;9.064;2022-07-21T02:20:12;4.83;;;4.43;;
73733;SDS011;62039;50.000;9.064;2022-07-21T02:22:39;5.10;;;4.70;;
73733;SDS011;62039;50.000;9.064;2022-07-21T02:25:05;5.63;;;4.63;;
73733;SDS011;62039;50.000;9.064;2022-07-21T02:27:32;5.73;;;5.23;;
73733;SDS011;62039;50.000;9.064;2022-07-21T02:30:00;5.27;;;4.77;;
73733;SDS011;62039;50.000;9.064;2022-07-21T02:32:27;5.43;;;5.03;;
73733;SDS011;62039;50.000;9.064;2022-07-21T02:34:53;4.87;;;4.47;;
73733;SDS011;62039;50.000;9.064;2022-07-21T02:37:20;5.83;;;5.33;;
73733;SDS011;62039;50.000;9.064;2022-07-21T02:39:47;5.47;;;4.97;;
73733;SDS011;62039;50.000;9.064;2022-07-21T02:42:13;5.90;;;5.40;;
73733;SDS011;62039;50.000;9.064;2022-07-21T02:44:40;5.60;;;5.10;;
73733;SDS011;62039;50.000;9.064;2022-07-21T02:47:08;6.00;;;5.40;;
73733;SDS011;62039;50.000;9.064;2022-07-21T02:49:34;5.57;;;4.80;;
73733;SDS011;62039;50.000;9.064;2022-07-21T02:52:01;5.97;;;5.30;;
73733;SDS011;62039;50.000;9.064;2022-07-21T02:54:28;5.83;;;5.33;;
73733;SDS011;62039;50.000;9.064;2022-07-21T02:56:54;7.20;;;6.50;;
73733;SDS011;62039;50.000;9.064;2022-07-21T02:59:21;6.43;;;5.90;;
73733;SDS011;62039;50.000;9.064;2022-07-21T03:01:47;6.77;;;6.17;;
73733;SDS011;62039;50.000;9.064;2022-07-21T03:04:15;7.30;;;6.70;;
73733;SDS011;62039;50.000;9.064;2022-07-21T03:06:42;6.97;;;6.43;;
73733;SDS011;62039;50.000;9.064;2022-07-21T03:09:09;7.97;;;7.27;;
73733;SDS011;62039;50.000;9.064;2022-07-21T03:11:36;7.10;;;6.40;;
73733;SDS011;62039;50.000;9.064;2022-07-21T03:14:02;6.70;;;6.03;;
73733;SDS011;62039;50.000;9.064;2022-07-21T03:16:29;7.17;;;6.53;;
73733;SDS011;62039;50.000;9.064;2022-07-21T03:18:56;7.53;;;6.93;;
73733;SDS011;62039;50.000;9.064;2022-07-21T03:21:24;8.10;;;7.40;;
73733;SDS011;62039;50.000;9.064;2022-07-21T03:23:50;8.33;;;7.53;;
73733;SDS011;62039;50.000;9.064;2022-07-21T03:26:17;8.00;;;7.20;;
73733;SDS011;62039;50.000;9.064;2022-07-21T03:28:44;8.03;;;7.43;;
73733;SDS011;62039;50.000;9.064;2022-07-21T03:31:10;8.03;;;7.33;;
73733;SDS011;62039;50.000;9.064;2022-07-21T03:33:37;8.50;;;7.80;;
73733;SDS011;62039;50.000;9.064;2022-07-21T03:36:04;8.70;;;7.90;;
73733;SDS011;62039;50.000;9.064;2022-07-21T03:38:32;7.80;;;7.10;;
73733;SDS011;62039;50.000;9.064;2022-07-21T03:40:59;8.83;;;7.93;;
73733;SDS011;62039;50.000;9.064;2022-07-21T03:43:25;8.17;;;7.47;;
73733;SDS011;62039;50.000;9.064;2022-07-21T03:45:52;7.33;;;6.73;;
73733;SDS011;62039;50.000;9.064;2022-07-21T03:48:18;9.30;;;8.40;;
73733;SDS011;62039;50.000;9.064;2022-07-21T03:50:45;8.43;;;7.63;;
73733;SDS011;62039;50.000;9.064;2022-07-21T03:53:12;8.50;;;7.80;;
73733;SDS011;62039;50.000;9.064;2022-07-21T03:55:40;8.03;;;7.37;;
73733;SDS011;62039;50.000;9.064;2022-07-21T03:58:06;8.07;;;7.27;;
73733;SDS011;62039;50.000;9.064;2022-07-21T04:00:35;8.37;;;7.67;;
73733;SDS011;62039;50.000;9.064;2022-07-21T04:03:02;7.73;;;7.13;;
73733;SDS011;62039;50.000;9.064;2022-07-21T04:05:30;8.13;;;7.47;;
73733;SDS011;62039;50.000;9.064;2022-07-21T04:07:57;8.10;;;7.40;;
73733;SDS011;62039;50.000;9.064;2022-07-21T04:10:24;7.33;;;6.73;;
73733;SDS011;62039;50.000;9.064;2022-07-21T04:12:53;8.37;;;7.67;;
73733;SDS011;62039;50.000;9.064;2022-07-21T04:15:20;7.67;;;6.97;;
73733;SDS011;62039;50.000;9.064;2022-07-21T04:17:47;7.70;;;7.00;;
73733;SDS011;62039;50.000;9.064;2022-07-21T04:20:14;7.47;;;6.87;;
73733;SDS011;62039;50.000;9.064;2022-07-21T04:22:41;7.77;;;7.07;;
73733;SDS011;62039;50.000;9.064;2022-07-21T04:25:11;8.13;;;7.43;;
73733;SDS011;62039;50.000;9.064;2022-07-21T04:27:39;8.50;;;7.67;;
73733;SDS011;62039;50.000;9.064;2022-07-21T04:30:11;6.47;;;5.97;;
73733;SDS011;62039;50.000;9.064;2022-07-21T04:32:39;7.67;;;6.97;;
73733;SDS011;62039;50.000;9.064;2022-07-21T04:35:07;7.93;;;7.23;;
73733;SDS011;62039;50.000;9.064;2022-07-21T04:37:34;7.60;;;6.83;;
73733;SDS011;62039;50.000;9.064;2022-07-21T04:40:02;7.80;;;6.97;;
73733;SDS011;62039;50.000;9.064;2022-07-21T04:42:31;7.67;;;7.00;;
73733;SDS011;62039;50.000;9.064;2022-07-21T04:44:59;7.17;;;6.50;;
73733;SDS011;62039;50.000;9.064;2022-07-21T04:47:27;6.40;;;5.90;;
73733;SDS011;62039;50.000;9.064;2022-07-21T04:49:53;6.07;;;5.57;;
73733;SDS011;62039;50.000;9.064;2022-07-21T04:52:20;6.33;;;5.83;;
73733;SDS011;62039;50.000;9.064;2022-07-21T04:54:47;6.13;;;5.53;;
73733;SDS011;62039;50.000;9.064;2022-07-21T04:57:13;6.40;;;5.90;;
73733;SDS011;62039;50.000;9.064;2022-07-21T04:59:40;6.17;;;5.67;;
73733;SDS011;62039;50.000;9.064;2022-07-21T05:02:06;5.53;;;5.13;;
73733;SDS011;62039;50.000;9.064;2022-07-21T05:04:35;6.20;;;5.70;;
73733;SDS011;62039;50.000;9.064;2022-07-21T05:07:01;5.73;;;5.00;;
73733;SDS011;62039;50.000;9.064;2022-07-21T05:09:28;5.67;;;5.07;;
73733;SDS011;62039;50.000;9.064;2022-07-21T05:11:54;5.17;;;4.77;;
73733;SDS011;62039;50.000;9.064;2022-07-21T05:14:21;5.43;;;5.03;;
73733;SDS011;62039;50.000;9.064;2022-07-21T05:16:48;6.70;;;5.17;;
73733;SDS011;62039;50.000;9.064;2022-07-21T05:19:14;5.43;;;4.93;;
73733;SDS011;62039;50.000;9.064;2022-07-21T05:21:42;5.73;;;5.13;;
73733;SDS011;62039;50.000;9.064;2022-07-21T05:24:09;5.57;;;4.70;;
73733;SDS011;62039;50.000;9.064;2022-07-21T05:26:35;5.20;;;4.80;;
73733;SDS011;62039;50.000;9.064;2022-07-21T05:29:02;5.10;;;4.70;;
73733;SDS011;62039;50.000;9.064;2022-07-21T05:31:29;5.73;;;5.13;;
73733;SDS011;62039;50.000;9.064;2022-07-21T05:33:56;6.27;;;5.67;;
73733;SDS011;62039;50.000;9.064;2022-07-21T05:36:22;5.60;;;5.13;;
73733;SDS011;62039;50.000;9.064;2022-07-21T05:38:50;4.63;;;4.23;;
73733;SDS011;62039;50.000;9.064;2022-07-21T05:41:17;4.90;;;4.47;;
73733;SDS011;62039;50.000;9.064;2022-07-21T05:43:44;3.97;;;3.67;;
73733;SDS011;62039;50.000;9.064;2022-07-21T05:46:11;4.50;;;4.20;;
73733;SDS011;62039;50.000;9.064;2022-07-21T05:48:37;4.73;;;3.90;;
73733;SDS011;62039;50.000;9.064;2022-07-21T05:51:04;4.60;;;4.20;;
73733;SDS011;62039;50.000;9.064;2022-07-21T05:53:31;4.70;;;4.20;;
73733;SDS011;62039;50.000;9.064;2022-07-21T05:55:59;4.77;;;4.27;;
73733;SDS011;62039;50.000;9.064;2022-07-21T05:58:25;4.33;;;3.97;;
73733;SDS011;62039;50.000;9.064;2022-07-21T06:00:52;4.87;;;4.47;;
73733;SDS011;62039;50.000;9.064;2022-07-21T06:03:19;4.50;;;4.10;;
73733;SDS011;62039;50.000;9.064;2022-07-21T06:05:46;4.60;;;4.20;;
73733;SDS011;62039;50.000;9.064;2022-07-21T06:08:12;4.10;;;3.80;;
73733;SDS011;62039;50.000;9.064;2022-07-21T06:10:39;4.30;;;4.00;;
73733;SDS011;62039;50.000;9.064;2022-07-21T06:13:07;4.20;;;3.90;;
73733;SDS011;62039;50.000;9.064;2022-07-21T06:15:33;4.30;;;3.90;;
73733;SDS011;62039;50.000;9.064;2022-07-21T06:18:00;4.27;;;3.90;;
73733;SDS011;62039;50.000;9.064;2022-07-21T06:20:26;3.67;;;3.37;;
73733;SDS011;62039;50.000;9.064;2022-07-21T06:22:53;4.00;;;3.70;;
73733;SDS011;62039;50.000;9.064;2022-07-21T06:25:20;3.63;;;3.33;;
73733;SDS011;62039;50.000;9.064;2022-07-21T06:27:46;3.20;;;3.00;;
73733;SDS011;62039;50.000;9.064;2022-07-21T06:30:14;6.40;;;3.80;;
73733;SDS011;62039;50.000;9.064;2022-07-21T06:32:41;4.43;;;4.03;;
73733;SDS011;62039;50.000;9.064;2022-07-21T06:35:08;3.70;;;3.40;;
73733;SDS011;62039;50.000;9.064;2022-07-21T06:37:36;4.03;;;3.63;;
73733;SDS011;62039;50.000;9.064;2022-07-21T06:40:04;3.63;;;3.33;;
73733;SDS011;62039;50.000;9.064;2022-07-21T06:42:32;3.53;;;3.23;;
73733;SDS011;62039;50.000;9.064;2022-07-21T06:44:58;3.70;;;3.40;;
73733;SDS011;62039;50.000;9.064;2022-07-21T06:47:26;3.67;;;3.37;;
73733;SDS011;62039;50.000;9.064;2022-07-21T06:49:53;4.00;;;3.60;;
73733;SDS011;62039;50.000;9.064;2022-07-21T06:52:21;3.50;;;3.20;;
73733;SDS011;62039;50.000;9.064;2022-07-21T06:54:48;3.93;;;3.53;;
73733;SDS011;62039;50.000;9.064;2022-07-21T06:57:14;3.57;;;3.20;;
73733;SDS011;62039;50.000;9.064;2022-07-21T06:59:41;4.03;;;3.73;;
73733;SDS011;62039;50.000;9.064;2022-07-21T07:02:07;4.20;;;3.90;;
73733;SDS011;62039;50.000;9.064;2022-07-21T07:04:35;3.30;;;3.03;;
73733;SDS011;62039;50.000;9.064;2022-07-21T07:07:02;3.57;;;3.27;;
73733;SDS011;62039;50.000;9.064;2022-07-21T07:09:29;4.03;;;3.40;;
73733;SDS011;62039;50.000;9.064;2022-07-21T07:11:55;3.43;;;3.13;;
73733;SDS011;62039;50.000;9.064;2022-07-21T07:14:42;4.90;;;3.60;;
73733;SDS011;62039;50.000;9.064;2022-07-21T07:17:09;4.50;;;3.57;;
73733;SDS011;62039;50.000;9.064;2022-07-21T07:19:37;3.33;;;3.13;;
73733;SDS011;62039;50.000;9.064;2022-07-21T07:22:03;4.37;;;3.97;;
73733;SDS011;62039;50.000;9.064;2022-07-21T07:24:30;3.33;;;3.13;;
73733;SDS011;62039;50.000;9.064;2022-07-21T07:26:56;3.20;;;3.00;;
73733;SDS011;62039;50.000;9.064;2022-07-21T07:29:23;2.67;;;2.47;;
73733;SDS011;62039;50.000;9.064;2022-07-21T07:31:50;4.17;;;3.80;;
73733;SDS011;62039;50.000;9.064;2022-07-21T07:34:16;3.47;;;3.17;;
73733;SDS011;62039;50.000;9.064;2022-07-21T07:36:44;3.67;;;3.33;;
73733;SDS011;62039;50.000;9.064;2022-07-21T07:39:11;2.70;;;2.50;;
73733;SDS011;62039;50.000;9.064;2022-07-21T07:41:38;4.27;;;3.10;;
73733;SDS011;62039;50.000;9.064;2022-07-21T07:44:05;3.13;;;2.83;;
73733;SDS011;62039;50.000;9.064;2022-07-21T07:46:31;2.97;;;2.77;;
73733;SDS011;62039;50.000;9.064;2022-07-21T07:48:58;3.57;;;3.10;;
73733;SDS011;62039;50.000;9.064;2022-07-21T07:51:35;3.00;;;2.80;;
73733;SDS011;62039;50.000;9.064;2022-07-21T07:54:03;2.87;;;2.67;;
73733;SDS011;62039;50.000;9.064;2022-07-21T07:56:30;2.70;;;2.50;;
73733;SDS011;62039;50.000;9.064;2022-07-21T07:58:56;3.43;;;3.13;;
73733;SDS011;62039;50.000;9.064;2022-07-21T08:01:24;3.30;;;3.00;;
73733;SDS011;62039;50.000;9.064;2022-07-21T08:03:50;3.20;;;2.70;;
73733;SDS011;62039;50.000;9.064;2022-07-21T08:06:18;2.53;;;2.33;;
73733;SDS011;62039;50.000;9.064;2022-07-21T08:08:44;2.60;;;2.40;;
73733;SDS011;62039;50.000;9.064;2022-07-21T08:11:12;2.60;;;2.40;;
73733;SDS011;62039;50.000;9.064;2022-07-21T08:13:39;2.83;;;2.53;;
73733;SDS011;62039;50.000;9.064;2022-07-21T08:16:06;3.13;;;2.83;;
73733;SDS011;62039;50.000;9.064;2022-07-21T08:18:33;3.50;;;3.20;;
73733;SDS011;62039;50.000;9.064;2022-07-21T08:20:59;5.90;;;2.90;;
73733;SDS011;62039;50.000;9.064;2022-07-21T08:23:26;3.40;;;3.10;;
73733;SDS011;62039;50.000;9.064;2022-07-21T08:25:53;3.30;;;3.10;;
73733;SDS011;62039;50.000;9.064;2022-07-21T08:28:21;3.20;;;2.90;;
73733;SDS011;62039;50.000;9.064;2022-07-21T08:30:47;2.90;;;2.70;;
73733;SDS011;62039;50.000;9.064;2022-07-21T08:33:14;2.80;;;2.60;;
73733;SDS011;62039;50.000;9.064;2022-07-21T08:35:41;3.07;;;2.87;;
73733;SDS011;62039;50.000;9.064;2022-07-21T08:38:08;4.17;;;2.93;;
73733;SDS011;62039;50.000;9.064;2022-07-21T08:40:37;3.37;;;2.73;;
73733;SDS011;62039;50.000;9.064;2022-07-21T08:43:06;3.13;;;2.83;;
73733;SDS011;62039;50.000;9.064;2022-07-21T08:45:35;3.13;;;2.83;;
73733;SDS011;62039;50.000;9.064;2022-07-21T08:48:01;2.60;;;2.40;;
73733;SDS011;62039;50.000;9.064;2022-07-21T08:50:29;3.23;;;2.90;;
73733;SDS011;62039;50.000;9.064;2022-07-21T08:52:58;2.93;;;2.63;;
73733;SDS011;62039;50.000;9.064;2022-07-21T08:55:28;3.03;;;2.60;;
73733;SDS011;62039;50.000;9.064;2022-07-21T08:57:55;3.27;;;2.97;;
73733;SDS011;62039;50.000;9.064;2022-07-21T09:00:21;3.37;;;3.07;;
73733;SDS011;62039;50.000;9.064;2022-07-21T09:02:50;3.20;;;2.97;;
73733;SDS011;62039;50.000;9.064;2022-07-21T09:05:34;3.10;;;2.80;;
73733;SDS011;62039;50.000;9.064;2022-07-21T09:08:01;3.20;;;2.90;;
73733;SDS011;62039;50.000;9.064;2022-07-21T09:10:28;3.07;;;2.87;;
73733;SDS011;62039;50.000;9.064;2022-07-21T09:12:59;3.67;;;3.37;;
73733;SDS011;62039;50.000;9.064;2022-07-21T09:15:27;3.43;;;3.13;;
73733;SDS011;62039;50.000;9.064;2022-07-21T09:18:06;3.23;;;2.93;;
73733;SDS011;62039;50.000;9.064;2022-07-21T09:20:37;3.87;;;2.80;;
73733;SDS011;62039;50.000;9.064;2022-07-21T09:23:06;4.00;;;3.60;;
73733;SDS011;62039;50.000;9.064;2022-07-21T09:25:36;3.60;;;3.30;;
73733;SDS011;62039;50.000;9.064;2022-07-21T09:28:08;4.37;;;3.40;;
73733;SDS011;62039;50.000;9.064;2022-07-21T09:33:33;3.57;;;3.23;;
73733;SDS011;62039;50.000;9.064;2022-07-21T09:36:03;3.20;;;2.70;;
73733;SDS011;62039;50.000;9.064;2022-07-21T09:38:31;3.10;;;2.90;;
73733;SDS011;62039;50.000;9.064;2022-07-21T09:41:07;3.70;;;3.40;;
73733;SDS011;62039;50.000;9.064;2022-07-21T09:43:37;3.13;;;2.83;;
73733;SDS011;62039;50.000;9.064;2022-07-21T09:46:05;3.10;;;2.90;;
73733;SDS011;62039;50.000;9.064;2022-07-21T09:48:34;3.20;;;3.00;;
73733;SDS011;62039;50.000;9.064;2022-07-21T09:51:20;2.93;;;2.73;;
73733;SDS011;62039;50.000;9.064;2022-07-21T09:53:50;3.33;;;2.87;;
73733;SDS011;62039;50.000;9.064;2022-07-21T09:56:18;3.53;;;3.23;;
73733;SDS011;62039;50.000;9.064;2022-07-21T09:58:45;3.27;;;2.97;;
73733;SDS011;62039;50.000;9.064;2022-07-21T10:01:13;3.10;;;2.80;;
73733;SDS011;62039;50.000;9.064;2022-07-21T10:03:43;3.00;;;2.80;;
73733;SDS011;62039;50.000;9.064;2022-07-21T10:06:10;3.23;;;2.77;;
73733;SDS011;62039;50.000;9.064;2022-07-21T10:08:37;3.13;;;2.93;;
73733;SDS011;62039;50.000;9.064;2022-07-21T10:11:04;3.10;;;2.90;;
73733;SDS011;62039;50.000;9.064;2022-07-21T10:13:44;3.07;;;2.87;;
73733;SDS011;62039;50.000;9.064;2022-07-21T10:16:11;2.93;;;2.73;;
73733;SDS011;62039;50.000;9.064;2022-07-21T10:18:42;3.13;;;2.83;;
73733;SDS011;62039;50.000;9.064;2022-07-21T10:21:23;2.83;;;2.63;;
73733;SDS011;62039;50.000;9.064;2022-07-21T10:23:56;2.60;;;2.40;;
73733;SDS011;62039;50.000;9.064;2022-07-21T10:26:23;2.77;;;2.57;;
73733;SDS011;62039;50.000;9.064;2022-07-21T10:28:49;4.20;;;2.90;;
73733;SDS011;62039;50.000;9.064;2022-07-21T10:31:17;2.77;;;2.57;;
73733;SDS011;62039;50.000;9.064;2022-07-21T10:33:56;2.60;;;2.40;;
73733;SDS011;62039;50.000;9.064;2022-07-21T10:36:40;2.80;;;2.60;;
73733;SDS011;62039;50.000;9.064;2022-07-21T10:39:19;2.80;;;2.60;;
73733;SDS011;62039;50.000;9.064;2022-07-21T10:41:47;2.70;;;2.50;;
73733;SDS011;62039;50.000;9.064;2022-07-21T10:47:07;3.07;;;2.77;;
73733;SDS011;62039;50.000;9.064;2022-07-21T10:49:46;2.97;;;2.77;;
73733;SDS011;62039;50.000;9.064;2022-07-21T10:55:22;3.23;;;2.93;;
73733;SDS011;62039;50.000;9.064;2022-07-21T11:00:36;2.67;;;2.47;;
73733;SDS011;62039;50.000;9.064;2022-07-21T11:03:04;3.23;;;2.93;;
73733;SDS011;62039;50.000;9.064;2022-07-21T11:06:08;3.90;;;3.60;;
73733;SDS011;62039;50.000;9.064;2022-07-21T11:08:57;3.30;;;3.00;;
73733;SDS011;62039;50.000;9.064;2022-07-21T11:11:33;2.90;;;2.70;;
73733;SDS011;62039;50.000;9.064;2022-07-21T11:14:02;3.40;;;3.10;;
73733;SDS011;62039;50.000;9.064;2022-07-21T11:19:36;3.13;;;2.93;;
73733;SDS011;62039;50.000;9.064;2022-07-21T11:22:06;3.50;;;3.20;;
73733;SDS011;62039;50.000;9.064;2022-07-21T11:24:35;3.53;;;3.23;;
73733;SDS011;62039;50.000;9.064;2022-07-21T11:27:04;3.07;;;2.87;;
73733;SDS011;62039;50.000;9.064;2022-07-21T11:29:32;2.73;;;2.53;;
73733;SDS011;62039;50.000;9.064;2022-07-21T11:31:59;2.63;;;2.43;;
73733;SDS011;62039;50.000;9.064;2022-07-21T11:34:36;3.27;;;3.00;;
73733;SDS011;62039;50.000;9.064;2022-07-21T11:37:05;3.00;;;2.80;;
73733;SDS011;62039;50.000;9.064;2022-07-21T11:39:52;3.10;;;2.90;;
73733;SDS011;62039;50.000;9.064;2022-07-21T11:42:19;3.60;;;3.27;;
73733;SDS011;62039;50.000;9.064;2022-07-21T11:44:54;3.83;;;3.43;;
73733;SDS011;62039;50.000;9.064;2022-07-21T11:47:21;2.90;;;2.70;;
73733;SDS011;62039;50.000;9.064;2022-07-21T11:49:47;3.20;;;2.90;;
73733;SDS011;62039;50.000;9.064;2022-07-21T11:52:24;2.77;;;2.57;;
73733;SDS011;62039;50.000;9.064;2022-07-21T11:54:52;2.67;;;2.47;;
73733;SDS011;62039;50.000;9.064;2022-07-21T11:57:20;2.70;;;2.50;;
73733;SDS011;62039;50.000;9.064;2022-07-21T11:59:48;3.97;;;3.17;;
73733;SDS011;62039;50.000;9.064;2022-07-21T12:02:16;4.30;;;3.00;;
73733;SDS011;62039;50.000;9.064;2022-07-21T12:04:46;2.97;;;2.70;;
73733;SDS011;62039;50.000;9.064;2022-07-21T12:07:15;2.70;;;2.37;;
73733;SDS011;62039;50.000;9.064;2022-07-21T12:09:46;2.90;;;2.40;;
73733;SDS011;62039;50.000;9.064;2022-07-21T12:12:27;2.80;;;2.00;;
73733;SDS011;62039;50.000;9.064;2022-07-21T12:14:55;2.70;;;2.50;;
73733;SDS011;62039;50.000;9.064;2022-07-21T12:17:32;2.13;;;2.03;;
73733;SDS011;62039;50.000;9.064;2022-07-21T12:20:00;2.40;;;2.20;;
73733;SDS011;62039;50.000;9.064;2022-07-21T12:22:34;2.70;;;2.50;;
73733;SDS011;62039;50.000;9.064;2022-07-21T12:25:04;2.67;;;2.20;;
73733;SDS011;62039;50.000;9.064;2022-07-21T12:27:33;2.40;;;2.30;;
73733;SDS011;62039;50.000;9.064;2022-07-21T12:30:01;2.00;;;1.80;;
73733;SDS011;62039;50.000;9.064;2022-07-21T12:32:38;1.93;;;1.73;;
73733;SDS011;62039;50.000;9.064;2022-07-21T12:35:20;2.00;;;1.80;;
73733;SDS011;62039;50.000;9.064;2022-07-21T12:38:01;2.27;;;2.07;;
73733;SDS011;62039;50.000;9.064;2022-07-21T12:40:32;2.00;;;1.90;;
73733;SDS011;62039;50.000;9.064;2022-07-21T12:43:09;2.23;;;2.10;;
73733;SDS011;62039;50.000;9.064;2022-07-21T12:45:51;2.37;;;2.17;;
73733;SDS011;62039;50.000;9.064;2022-07-21T12:48:21;2.33;;;2.17;;
73733;SDS011;62039;50.000;9.064;2022-07-21T12:50:59;2.30;;;2.10;;
73733;SDS011;62039;50.000;9.064;2022-07-21T12:53:27;1.97;;;1.87;;
73733;SDS011;62039;50.000;9.064;2022-07-21T12:55:55;2.50;;;2.20;;
73733;SDS011;62039;50.000;9.064;2022-07-21T12:58:22;2.27;;;2.00;;
73733;SDS011;62039;50.000;9.064;2022-07-21T13:00:49;2.50;;;2.20;;
73733;SDS011;62039;50.000;9.064;2022-07-21T13:03:17;2.37;;;2.10;;
73733;SDS011;62039;50.000;9.064;2022-07-21T13:05:43;2.50;;;2.30;;
73733;SDS011;62039;50.000;9.064;2022-07-21T13:08:10;2.30;;;1.97;;
73733;SDS011;62039;50.000;9.064;2022-07-21T13:10:37;2.40;;;2.20;;
73733;SDS011;62039;50.000;9.064;2022-07-21T13:13:05;3.10;;;2.30;;
73733;SDS011;62039;50.000;9.064;2022-07-21T13:15:31;2.30;;;2.20;;
73733;SDS011;62039;50.000;9.064;2022-07-21T13:17:58;2.50;;;2.30;;
73733;SDS011;62039;50.000;9.064;2022-07-21T13:20:25;2.37;;;2.17;;
73733;SDS011;62039;50.000;9.064;2022-07-21T13:22:51;2.50;;;2.30;;
73733;SDS011;62039;50.000;9.064;2022-07-21T13:25:18;2.47;;;2.27;;
73733;SDS011;62039;50.000;9.064;2022-07-21T13:27:44;2.30;;;2.10;;
73733;SDS011;62039;50.000;9.064;2022-07-21T13:30:15;2.10;;;2.00;;
73733;SDS011;62039;50.000;9.064;2022-07-21T13:32:42;2.50;;;1.97;;
73733;SDS011;62039;50.000;9.064;2022-07-21T13:35:09;2.43;;;2.23;;
73733;SDS011;62039;50.000;9.064;2022-07-21T13:37:51;2.20;;;2.10;;
73733;SDS011;62039;50.000;9.064;2022-07-21T13:40:18;3.13;;;2.40;;
73733;SDS011;62039;50.000;9.064;2022-07-21T13:43:05;2.30;;;2.10;;
73733;SDS011;62039;50.000;9.064;2022-07-21T13:45:53;3.10;;;2.10;;
73733;SDS011;62039;50.000;9.064;2022-07-21T13:48:20;2.33;;;2.13;;
73733;SDS011;62039;50.000;9.064;2022-07-21T13:50:46;2.40;;;2.20;;
73733;SDS011;62039;50.000;9.064;2022-07-21T13:53:15;2.40;;;2.20;;
73733;SDS011;62039;50.000;9.064;2022-07-21T13:55:41;2.80;;;2.30;;
73733;SDS011;62039;50.000;9.064;2022-07-21T13:58:08;2.43;;;2.23;;
73733;SDS011;62039;50.000;9.064;2022-07-21T14:00:34;4.00;;;2.70;;
73733;SDS011;62039;50.000;9.064;2022-07-21T14:03:10;2.87;;;2.60;;
73733;SDS011;62039;50.000;9.064;2022-07-21T14:05:36;2.80;;;2.60;;
73733;SDS011;62039;50.000;9.064;2022-07-21T14:08:03;2.83;;;2.63;;
73733;SDS011;62039;50.000;9.064;2022-07-21T14:10:30;3.17;;;2.97;;
73733;SDS011;62039;50.000;9.064;2022-07-21T14:12:57;2.33;;;2.20;;
73733;SDS011;62039;50.000;9.064;2022-07-21T14:15:23;2.83;;;2.63;;
73733;SDS011;62039;50.000;9.064;2022-07-21T14:17:50;3.70;;;3.40;;
73733;SDS011;62039;50.000;9.064;2022-07-21T14:20:24;4.47;;;3.40;;
73733;SDS011;62039;50.000;9.064;2022-07-21T14:22:52;3.50;;;3.20;;
73733;SDS011;62039;50.000;9.064;2022-07-21T14:25:19;4.27;;;3.87;;
73733;SDS011;62039;50.000;9.064;2022-07-21T14:27:45;3.77;;;3.47;;
73733;SDS011;62039;50.000;9.064;2022-07-21T14:30:13;3.27;;;2.90;;
73733;SDS011;62039;50.000;9.064;2022-07-21T14:32:40;3.47;;;3.17;;
73733;SDS011;62039;50.000;9.064;2022-07-21T14:35:07;3.20;;;3.00;;
73733;SDS011;62039;50.000;9.064;2022-07-21T14:37:36;3.33;;;3.13;;
73733;SDS011;62039;50.000;9.064;2022-07-21T14:40:03;3.40;;;3.10;;
73733;SDS011;62039;50.000;9.064;2022-07-21T14:42:31;3.13;;;2.93;;
73733;SDS011;62039;50.000;9.064;2022-07-21T14:44:57;3.50;;;3.20;;
73733;SDS011;62039;50.000;9.064;2022-07-21T14:47:24;3.10;;;2.90;;
73733;SDS011;62039;50.000;9.064;2022-07-21T14:49:51;3.23;;;3.03;;
73733;SDS011;62039;50.000;9.064;2022-07-21T14:52:17;5.53;;;3.40;;
73733;SDS011;62039;50.000;9.064;2022-07-21T14:54:45;3.63;;;3.30;;
73733;SDS011;62039;50.000;9.064;2022-07-21T14:57:12;3.90;;;3.60;;
73733;SDS011;62039;50.000;9.064;2022-07-21T14:59:38;3.90;;;3.50;;
73733;SDS011;62039;50.000;9.064;2022-07-21T15:02:05;4.10;;;3.80;;
73733;SDS011;62039;50.000;9.064;2022-07-21T15:04:39;3.40;;;3.10;;
73733;SDS011;62039;50.000;9.064;2022-07-21T15:07:06;3.27;;;3.07;;
73733;SDS011;62039;50.000;9.064;2022-07-21T15:09:32;7.47;;;3.87;;